Aérodrome :
LOGIN :

S'inscrire | Disclaimer

   EN    FR    IT 

 










Légende :    VFR   VFR Marginal   IFR   IFR Intensif   IFR Très Intensif
Visi : 
Plafond : 
>= 8 km
>= 3000ft
5 à 8 km
1000 à 3000 ft
1500m à 5 km
500 à 1000 ft
800 à 1500m
200 à 500 ft
< 800m
< 200 ft
Symboles :   Orages  Brouillard  Fortes neiges  Fortes précipitations  Vent > 20 kt
SIGMETs :   Divers  Orages  Givrage  Turbulence  Onde Orograph.  Cendres Volcan.







- Altitude de l'aérodrome : 53 ft
- Code IATA : HAM


EDDH - Hamburg

DERNIER METAR :
  • 211720Z 15009KT 9000 BKN006 12/12 Q1010 BECMG BKN015

METARs EXPIRÉS :
  • 211650Z 15010KT 5000 -DZ BKN006 12/12 Q1010 RERA TEMPO 4000
  • 211620Z 16009KT 3200 DZ BKN006 12/12 Q1010 BECMG NSW
  • 211550Z 16008KT 3500 DZ BKN008 12/11 Q1010 BECMG NSW
  • 211520Z 16011KT 5000 -DZ BKN010 12/11 Q1010 TEMPO 4000 DZ BKN008
  • 211450Z 16012KT 9999 BKN012 13/11 Q1011 TEMPO BKN008

TAF TAF EDDH
Valide du 21 à 18h jusqu'au 23 à 00h UTC


211700Z 2118/2224 19008KT 4000 -DZ BKN007
BECMG 2118/2120 9999 BKN025
PROB30
TEMPO 2118/2122 SHRA BKN020CB
TEMPO 2208/2215 20015G25KT 4000 RADZ BKN008
Pas de NOTAMs connus pour ce terrain.



MET'MAP, la Météo Aéronautique d'un coup d'oeil ! - Copyright ORBIFLY Décembre 2007 - Disclaimer

ORBIFLY MET'MAP TEAM :

Programmation & Développement : Alexandra Zaïnal
Conception & Développement : Baudouin d'Aumeries
Co-Programmation & Développement : Marc-Olivier Méhu
Soutien technique & logistique : Manuel Goepfert

Contact : metmap@orbifly.com




SOURCES & CREDITS :

   NOAA